Apple Valley, Idaho
Current Conditions -  °F | °C
As of 11:29 PM on Friday 19 Dec 2014 (Local Time) from KONO Reporting Station
Haze Haze  
Wind Chill: 34°   Ceiling: 1100
Heat Index: 34°   Visibility: 2mi
Dew Point: 32°   Wind: 0mph
Humidity: 92%   Direction: NA
Pressure: 30.11"   Gusts: NA
Location:  43.8067°N, 116.922°W
Report Text: KONO 200629Z AUTO 00000KT 2SM BR BKN011 01/00 A3011 RMK AO2 T00110000
Loading
Personal Weather Stations






























Interactive Weather Map New forecast layout! Learn more

10-Day Weather Forecast

Advertisements
Track Severe Weather on mobile